Flight Track Log - Related Links

Times and Time Zones

All times are in EDT time to prevent confusion due to time zone crossing. See the CES5389 flight status page for this flight to view local times or setup timezone preferences in your user account.

Time Position Orientation Groundspeed Altitude Reporting Facility
EDT Latitude Longitude Course Direction KTS MPH feet Rate Location/Type
Sat 07:37:06 PM 31.2086 121.3317 356° North 161 185 400  Level FlightAware ADS-B (ZSSS / SHA)
Sat 07:37:20 PM 31.2176 121.3301 343° North 158 182 1,200 2,842 Climbing FlightAware ADS-B (ZSSS / SHA)
Sat 07:37:25 PM 31.2219 121.3279 331° Northwest 162 186 1,300 2,087 Climbing FlightAware ADS-B (ZSSS / SHA)
Sat 07:37:43 PM 31.2334 121.3186 323° Northwest 174 200 2,000 1,886 Climbing FlightAware ADS-B (ZSSS / SHA)
Sat 07:38:00 PM 31.2441 121.3087 322° Northwest 192 221 2,400 1,313 Climbing FlightAware ADS-B (ZSSS / SHA)
Sat 07:38:15 PM 31.2552 121.2982 321° Northwest 209 241 2,700 1,385 Climbing FlightAware ADS-B (ZSSS / SHA)
Sat 07:38:26 PM 31.2643 121.2897 322° Northwest 224 258 3,000 1,778 Climbing FlightAware ADS-B (ZSSS / SHA)
Sat 07:38:42 PM 31.2785 121.2768 322° Northwest 246 283 3,500 2,182 Climbing FlightAware ADS-B (ZSSS / SHA)
Sat 07:38:59 PM 31.2934 121.2628 321° Northwest 258 297 4,200 2,903 Climbing FlightAware ADS-B (ZSSS / SHA)
Sat 07:39:13 PM 31.3061 121.2507 322° Northwest 255 293 5,000 3,400 Climbing FlightAware ADS-B (ZSSS / SHA)
Sat 07:39:29 PM 31.3208 121.2370 322° Northwest 259 298 5,900 3,310 Climbing FlightAware ADS-B (ZSSS / SHA)
Sat 07:39:42 PM 31.3333 121.2254 322° Northwest 262 302 6,600 3,000 Climbing FlightAware ADS-B (ZSSS / SHA)
Sat 07:39:59 PM 31.3489 121.2110 322° Northwest 264 304 7,400 2,710 Climbing FlightAware ADS-B (ZSSS / SHA)
Sat 07:40:13 PM 31.3614 121.1992 322° Northwest 264 304 8,000 2,538 Climbing FlightAware ADS-B (ZSSS / SHA)
Sat 07:40:25 PM 31.3758 121.1859 322° Northwest 278 320 8,500 2,897 Climbing FlightAware ADS-B (ZSSS / SHA)
Sat 07:40:42 PM 31.3895 121.1732 322° Northwest 274 315 9,400 2,559 Climbing FlightAware ADS-B (ZSSS / SHA)
Sat 07:41:33 PM 31.4431 121.1233 324° Northwest 303 349 11,400 1,813 Climbing FlightAware ADS-B (ZSSS / SHA)
Sat 07:42:18 PM 31.5065 121.0867 324° Northwest 303 349 12,300 1,200 Climbing FlightAware ADS-B (ZSSS / SHA)
Sat 07:44:00 PM 31.5758 120.9218 296° West  Level Estimated
Sat 07:45:00 PM 31.6165 120.8246 296° West  Level Estimated
Sat 07:46:00 PM 31.6571 120.7274 296° West  Level Estimated
Sat 07:47:00 PM 31.6976 120.6300 296° West  Level Estimated
Sat 07:48:00 PM 31.7380 120.5326 296° West  Level Estimated
Sat 07:49:00 PM 31.7784 120.4351 296° West  Level Estimated
Sat 07:50:00 PM 31.8187 120.3375 296° West  Level Estimated
Sat 07:51:00 PM 31.8589 120.2399 296° West  Level Estimated
Sat 07:52:00 PM 31.8990 120.1421 296° West  Level Estimated
Sat 07:53:00 PM 31.9391 120.0443 296° West  Level Estimated
Sat 07:54:00 PM 31.9791 119.9463 296° West  Level Estimated
Sat 07:55:00 PM 32.0190 119.8483 296° West  Level Estimated
Sat 07:56:00 PM 32.0589 119.7502 296° West  Level Estimated
Sat 07:57:00 PM 32.0986 119.6521 296° West  Level Estimated
Sat 07:58:00 PM 32.1383 119.5538 296° West  Level Estimated
Sat 07:59:00 PM 32.1779 119.4554 295° West  Level Estimated
Sat 08:00:00 PM 32.2175 119.3570 295° West  Level Estimated
Sat 08:01:00 PM 32.2570 119.2585 295° West  Level Estimated
Sat 08:02:00 PM 32.2963 119.1599 295° West  Level Estimated
Sat 08:03:00 PM 32.3356 119.0612 295° West  Level Estimated
Sat 08:04:00 PM 32.3749 118.9624 295° West  Level Estimated
Sat 08:05:00 PM 32.4140 118.8635 295° West  Level Estimated
Sat 08:06:00 PM 32.4531 118.7646 295° West  Level Estimated
Sat 08:07:00 PM 32.4921 118.6655 295° West  Level Estimated
Sat 08:08:00 PM 32.5310 118.5664 295° West  Level Estimated
Sat 08:09:00 PM 32.5699 118.4672 295° West  Level Estimated
Sat 08:10:00 PM 32.6087 118.3679 295° West  Level Estimated
Sat 08:11:00 PM 32.6473 118.2685 295° West  Level Estimated
Sat 08:12:00 PM 32.6860 118.1691 295° West  Level Estimated
Sat 08:13:00 PM 32.7245 118.0695 295° West  Level Estimated
Sat 08:14:00 PM 32.7629 117.9699 295° West  Level Estimated
Sat 08:15:00 PM 32.8013 117.8701 295° West  Level Estimated
Sat 08:16:00 PM 32.8396 117.7703 295° West  Level Estimated
Sat 08:17:00 PM 32.8778 117.6704 295° West  Level Estimated
Sat 08:18:00 PM 32.9160 117.5704 294° West  Level Estimated
Sat 08:19:00 PM 32.9540 117.4704 294° West  Level Estimated
Sat 08:20:00 PM 32.9920 117.3702 294° West  Level Estimated
Sat 08:21:00 PM 33.0299 117.2700 294° West  Level Estimated
Sat 08:22:00 PM 33.0677 117.1696 294° West  Level Estimated
Sat 08:23:00 PM 33.1055 117.0692 294° West  Level Estimated
Sat 08:24:00 PM 33.1431 116.9687 294° West  Level Estimated
Sat 08:25:00 PM 33.1807 116.8681 294° West  Level Estimated
Sat 08:26:00 PM 33.2182 116.7675 294° West  Level Estimated
Sat 08:27:00 PM 33.2556 116.6667 294° West  Level Estimated
Sat 08:28:00 PM 33.2929 116.5659 294° West  Level Estimated
Sat 08:29:00 PM 33.3302 116.4649 294° West  Level Estimated
Sat 08:30:00 PM 33.3674 116.3639 294° West  Level Estimated
Sat 08:31:00 PM 33.4044 116.2628 294° West  Level Estimated
Sat 08:32:00 PM 33.4414 116.1616 294° West  Level Estimated
Sat 08:33:00 PM 33.4784 116.0603 294° West  Level Estimated
Sat 08:34:00 PM 33.5152 115.9590 294° West  Level Estimated
Sat 08:35:00 PM 33.5520 115.8575 294° West  Level Estimated
Sat 08:36:00 PM 33.5886 115.7560 293° West  Level Estimated
Sat 08:37:00 PM 33.6252 115.6544 293° West  Level Estimated
Sat 08:38:00 PM 33.6617 115.5527 293° West  Level Estimated
Sat 08:39:00 PM 33.6982 115.4509 293° West  Level Estimated
Sat 08:40:00 PM 33.7345 115.3490 293° West  Level Estimated
Sat 08:41:00 PM 33.7708 115.2470 293° West  Level Estimated
Sat 08:42:00 PM 33.8069 115.1450 293° West  Level Estimated
Sat 08:43:00 PM 33.8430 115.0428 293° West  Level Estimated
Sat 08:44:00 PM 33.8790 114.9406 293° West  Level Estimated
Sat 08:45:00 PM 33.9150 114.8383 293° West  Level Estimated
Sat 08:46:00 PM 33.9508 114.7359 293° West  Level Estimated
Sat 08:47:00 PM 33.9865 114.6334 293° West  Level Estimated
Sat 08:48:00 PM 34.0222 114.5308 293° West  Level Estimated
Sat 08:49:00 PM 34.0578 114.4282 293° West  Level Estimated
Sat 08:50:00 PM 34.0933 114.3254 293° West  Level Estimated
Sat 08:51:00 PM 34.1287 114.2226 293° West  Level Estimated
Sat 08:52:00 PM 34.1640 114.1197 293° West  Level Estimated
Sat 08:53:00 PM 34.1993 114.0167 292° West  Level Estimated
Sat 08:54:00 PM 34.2344 113.9136 292° West  Level Estimated
Sat 08:55:00 PM 34.2695 113.8104 292° West  Level Estimated
Sat 08:56:00 PM 34.3045 113.7072 292° West  Level Estimated
Sat 08:57:00 PM 34.3394 113.6038 292° West  Level Estimated
Sat 08:58:00 PM 34.3742 113.5004 292° West  Level Estimated
Sat 08:59:00 PM 34.4089 113.3969 292° West  Level Estimated
Sat 09:00:00 PM 34.4435 113.2933 292° West  Level Estimated
Sat 09:01:00 PM 34.4781 113.1896 292° West  Level Estimated
Sat 09:02:00 PM 34.5125 113.0858 292° West  Level Estimated
Sat 09:03:00 PM 34.5469 112.9820 292° West  Level Estimated
Sat 09:04:00 PM 34.5812 112.8780 292° West  Level Estimated
Sat 09:05:00 PM 34.6154 112.7740 292° West  Level Estimated
Sat 09:06:00 PM 34.6495 112.6699 292° West  Level Estimated
Sat 09:07:00 PM 34.6835 112.5657 292° West  Level Estimated
Sat 09:08:00 PM 34.7174 112.4614 292° West  Level Estimated
Sat 09:09:00 PM 34.7411 112.3883 292° West  Level Estimated
Sat 09:10:00 PM 34.7411 112.3883 North  Level Estimated
Sat 09:11:00 PM 34.7411 112.3883 North  Level Estimated
Sat 09:12:00 PM 34.7411 112.3883 North  Level Estimated
Sat 09:13:00 PM 34.7411 112.3883 North  Level Estimated
Sat 09:14:00 PM 34.7411 112.3883 North  Level Estimated
Sat 09:15:00 PM 34.7411 112.3883 North  Level Estimated
Sat 09:16:00 PM 34.7411 112.3883 North  Level Estimated
Sat 09:17:00 PM 34.7411 112.3883 North  Level Estimated
Sat 09:18:00 PM 34.7411 112.3883 North  Level Estimated
Sat 09:19:00 PM 34.7411 112.3883 North  Level Estimated
Sat 09:20:00 PM 34.7411 112.3883 North  Level Estimated
Sat 09:21:00 PM 34.7411 112.3883 North  Level Estimated
Sat 09:22:00 PM 34.7411 112.3883 North  Level Estimated

Login

Don't have an account? Register now (free) for customized features, flight alerts, and more!